Time;durP1;ratioP1;P1;durP2;ratioP2;P2;SDS_P1;SDS_P2;PMS_P1;PMS_P2;Temp;Humidity;BMP_temperature;BMP_pressure;BME280_temperature;BME280_humidity;BME280_pressure;Samples;Min_cycle;Max_cycle;Signal;HPM_P1;HPM_P2
2024/04/25 00:00:59;;;;;;;2.60;2.33;;;2.90;97.60;;;;;;5354994;26;20232;-84
2024/04/25 00:03:27;;;;;;;3.70;2.30;;;3.00;97.60;;;;;;5344530;26;20360;-84
2024/04/25 00:05:56;;;;;;;4.57;2.30;;;3.00;97.20;;;;;;5335762;26;20333;-84
2024/04/25 00:08:27;;;;;;;3.17;2.63;;;3.10;97.00;;;;;;5341553;26;20237;-84
2024/04/25 00:10:56;;;;;;;2.60;2.40;;;3.00;97.20;;;;;;5341984;26;20338;-84
2024/04/25 00:13:26;;;;;;;2.80;2.47;;;3.00;97.30;;;;;;5338465;26;20317;-84
2024/04/25 00:15:56;;;;;;;2.40;2.20;;;3.00;97.30;;;;;;5326923;26;20284;-84
2024/04/25 00:18:24;;;;;;;2.83;2.50;;;3.10;97.30;;;;;;5336478;26;20234;-84
2024/04/25 00:20:53;;;;;;;2.33;2.13;;;3.20;96.80;;;;;;5350809;26;20352;-83
2024/04/25 00:23:22;;;;;;;2.60;2.40;;;3.10;96.70;;;;;;5345202;26;20553;-84
2024/04/25 00:25:53;;;;;;;2.63;2.23;;;3.20;96.60;;;;;;5329445;26;20282;-84
2024/04/25 00:28:21;;;;;;;3.03;2.60;;;3.10;96.50;;;;;;5350214;26;20341;-84
2024/04/25 00:30:50;;;;;;;2.97;2.63;;;3.10;96.70;;;;;;5333934;26;20245;-84
2024/04/25 00:33:19;;;;;;;2.60;2.40;;;3.10;96.50;;;;;;5355980;26;20277;-84
2024/04/25 00:35:48;;;;;;;3.90;2.67;;;3.00;96.90;;;;;;5327387;26;20246;-83
2024/04/25 00:38:17;;;;;;;3.30;2.70;;;3.00;97.00;;;;;;5343752;26;20264;-84
2024/04/25 00:40:46;;;;;;;3.50;2.90;;;3.00;97.30;;;;;;5329830;26;20246;-84
2024/04/25 00:43:17;;;;;;;5.17;2.80;;;3.00;97.30;;;;;;5343827;26;20279;-84
2024/04/25 00:45:46;;;;;;;4.93;3.00;;;3.00;97.30;;;;;;5324447;26;20775;-84
2024/04/25 00:48:16;;;;;;;3.80;2.83;;;3.00;97.20;;;;;;5337336;26;20238;-84
2024/04/25 00:50:45;;;;;;;3.67;2.70;;;3.00;97.00;;;;;;5344797;26;20238;-84
2024/04/25 00:53:14;;;;;;;3.93;3.00;;;3.00;97.40;;;;;;5355736;26;20269;-84
2024/04/25 00:55:43;;;;;;;3.47;3.00;;;3.00;97.30;;;;;;5335672;26;20257;-84
2024/04/25 00:58:12;;;;;;;3.30;3.00;;;2.90;97.20;;;;;;5344652;26;20762;-84
2024/04/25 01:00:45;;;;;;;2.83;2.57;;;2.90;97.20;;;;;;5341161;26;20234;-83
2024/04/25 01:03:15;;;;;;;3.43;2.80;;;3.00;97.40;;;;;;5353995;26;20268;-84
2024/04/25 01:05:46;;;;;;;4.77;2.93;;;2.90;97.50;;;;;;5335593;26;20233;-84
2024/04/25 01:08:15;;;;;;;3.57;3.10;;;2.90;97.60;;;;;;5347529;26;20238;-84
2024/04/25 01:10:44;;;;;;;3.20;2.90;;;2.90;97.80;;;;;;5333245;26;20248;-84
2024/04/25 01:13:12;;;;;;;3.20;2.90;;;3.00;97.90;;;;;;5330935;26;20357;-84
2024/04/25 01:15:44;;;;;;;3.57;3.10;;;3.00;97.70;;;;;;5338464;26;20674;-84
2024/04/25 01:18:14;;;;;;;3.20;2.80;;;3.20;97.30;;;;;;5343794;26;20246;-84
2024/04/25 01:20:43;;;;;;;3.23;2.93;;;3.30;97.00;;;;;;5336872;26;20242;-84
2024/04/25 01:23:14;;;;;;;2.87;2.57;;;3.40;96.70;;;;;;5339154;26;20246;-84
2024/04/25 01:25:48;;;;;;;4.60;3.10;;;3.40;96.40;;;;;;5342639;26;21022;-84
2024/04/25 01:28:18;;;;;;;3.10;2.80;;;3.40;96.70;;;;;;5343140;26;20232;-83
2024/04/25 01:30:49;;;;;;;3.93;3.00;;;3.40;96.30;;;;;;5345153;26;20237;-85
2024/04/25 01:33:18;;;;;;;3.63;3.17;;;3.50;96.40;;;;;;5336211;26;20246;-84
2024/04/25 01:35:48;;;;;;;3.10;2.80;;;3.40;96.10;;;;;;5327289;26;20362;-84
2024/04/25 01:38:17;;;;;;;3.20;2.90;;;3.50;95.80;;;;;;5343158;26;20241;-84
2024/04/25 01:40:50;;;;;;;3.03;2.70;;;3.50;95.60;;;;;;5343932;26;20264;-84
2024/04/25 01:43:19;;;;;;;3.97;2.77;;;3.50;95.30;;;;;;5342998;26;20245;-84
2024/04/25 01:45:47;;;;;;;5.17;3.17;;;3.50;95.50;;;;;;5351107;26;20617;-83
2024/04/25 01:48:16;;;;;;;3.53;3.17;;;3.60;95.10;;;;;;5342855;26;20233;-84
2024/04/25 01:50:45;;;;;;;4.23;2.97;;;3.50;95.50;;;;;;5345993;26;20300;-84
2024/04/25 01:53:13;;;;;;;3.60;3.30;;;3.50;95.80;;;;;;5343802;26;20293;-84
2024/04/25 01:55:42;;;;;;;3.10;2.80;;;3.50;95.80;;;;;;5336456;26;20237;-84
2024/04/25 01:58:13;;;;;;;3.67;3.17;;;3.50;95.90;;;;;;5345593;26;20352;-84
2024/04/25 02:00:42;;;;;;;3.90;3.40;;;3.40;95.80;;;;;;5334049;26;20302;-84
2024/04/25 02:03:10;;;;;;;3.77;3.07;;;3.40;95.50;;;;;;5333819;26;20694;-84
2024/04/25 02:05:39;;;;;;;3.80;3.40;;;3.40;95.80;;;;;;5334892;26;20332;-84
2024/04/25 02:08:08;;;;;;;3.60;3.30;;;3.50;95.70;;;;;;5339228;26;20316;-84
2024/04/25 02:10:37;;;;;;;4.23;3.10;;;3.60;94.80;;;;;;5346619;26;20327;-84
2024/04/25 02:13:03;;;;;;;3.63;3.33;;;3.50;94.70;;;;;;5349351;26;20329;-84
2024/04/25 02:15:34;;;;;;;3.97;3.40;;;3.50;95.30;;;;;;5346649;26;20335;-84
2024/04/25 02:18:03;;;;;;;4.20;3.80;;;3.50;95.90;;;;;;5344229;26;20726;-84
2024/04/25 02:26:03;;;;;;;4.17;3.53;;;3.50;95.50;;;;;;5344283;26;20275;-84
2024/04/25 02:28:32;;;;;;;3.93;3.23;;;3.60;95.50;;;;;;5333964;26;20254;-84
2024/04/25 02:31:03;;;;;;;4.17;3.20;;;3.60;94.80;;;;;;5365932;26;20317;-84
2024/04/25 02:33:32;;;;;;;4.03;3.60;;;3.70;94.80;;;;;;5343299;26;20392;-84
2024/04/25 02:36:00;;;;;;;3.53;3.10;;;3.70;94.80;;;;;;5325846;26;20302;-84
2024/04/25 02:38:26;;;;;;;5.40;3.40;;;3.70;94.80;;;;;;5345955;26;20306;-84
2024/04/25 02:40:56;;;;;;;4.03;3.43;;;3.60;94.80;;;;;;5336951;26;20309;-84
2024/04/25 02:43:21;;;;;;;4.53;3.50;;;3.70;94.80;;;;;;5343621;26;20233;-84
2024/04/25 02:45:50;;;;;;;4.60;3.23;;;3.70;94.80;;;;;;5344185;26;20237;-84
2024/04/25 02:48:19;;;;;;;3.87;3.27;;;3.70;94.80;;;;;;5332057;26;20824;-84
2024/04/25 02:50:47;;;;;;;4.67;3.33;;;3.70;94.80;;;;;;5348178;26;20583;-84
2024/04/25 02:53:13;;;;;;;4.67;3.67;;;3.70;94.80;;;;;;5348471;26;20233;-84
2024/04/25 02:55:43;;;;;;;5.87;3.23;;;3.80;94.80;;;;;;5344331;26;21377;-84
2024/04/25 02:58:09;;;;;;;4.33;3.80;;;3.80;94.60;;;;;;5333500;26;20372;-84
2024/04/25 03:00:37;;;;;;;4.03;3.50;;;3.70;94.60;;;;;;5335969;26;20258;-84
2024/04/25 03:03:03;;;;;;;4.80;3.63;;;3.60;94.80;;;;;;5334608;26;20681;-84
2024/04/25 03:05:35;;;;;;;3.90;3.13;;;3.70;94.80;;;;;;5339342;26;20237;-84
2024/04/25 03:08:01;;;;;;;4.37;3.40;;;3.70;94.80;;;;;;5356684;26;20317;-84
2024/04/25 03:10:29;;;;;;;4.83;3.30;;;3.80;94.50;;;;;;5343964;26;20230;-84
2024/04/25 03:12:55;;;;;;;4.03;3.53;;;3.80;94.20;;;;;;5342094;26;20297;-84
2024/04/25 03:15:24;;;;;;;4.17;3.70;;;3.70;94.30;;;;;;5352251;26;20349;-84
2024/04/25 03:17:50;;;;;;;5.80;3.80;;;3.70;94.30;;;;;;5337647;26;20237;-84
2024/04/25 03:20:18;;;;;;;3.77;3.33;;;3.70;94.60;;;;;;5330739;26;20273;-84
2024/04/25 03:22:47;;;;;;;6.13;3.60;;;3.60;94.80;;;;;;5341681;26;20242;-84
2024/04/25 03:25:15;;;;;;;4.03;3.33;;;3.50;95.00;;;;;;5348642;26;20289;-84
2024/04/25 03:27:41;;;;;;;3.83;3.50;;;3.50;94.70;;;;;;5332321;26;20238;-84
2024/04/25 03:30:11;;;;;;;3.90;3.50;;;3.50;94.70;;;;;;5334787;26;20333;-83
2024/04/25 03:32:37;;;;;;;4.60;3.57;;;3.50;94.70;;;;;;5335173;26;20241;-84
2024/04/25 03:35:05;;;;;;;3.40;3.10;;;3.60;94.80;;;;;;5343640;26;20237;-84
2024/04/25 03:37:34;;;;;;;5.37;3.50;;;3.60;94.80;;;;;;5349069;26;20318;-84
2024/04/25 03:40:06;;;;;;;4.17;3.33;;;3.70;94.80;;;;;;5342150;26;20342;-84
2024/04/25 03:42:34;;;;;;;4.00;3.60;;;3.70;94.80;;;;;;5333135;26;21154;-84
2024/04/25 03:45:03;;;;;;;3.73;3.40;;;3.60;94.80;;;;;;5333057;26;20724;-84
2024/04/25 03:47:32;;;;;;;4.00;3.60;;;3.50;94.70;;;;;;5341784;26;20229;-84
2024/04/25 03:50:01;;;;;;;4.90;3.43;;;3.50;94.70;;;;;;5350704;26;20307;-84
2024/04/25 03:52:29;;;;;;;4.20;3.20;;;3.40;94.70;;;;;;5346000;26;20733;-84
2024/04/25 03:54:58;;;;;;;4.60;3.57;;;3.30;95.00;;;;;;5359424;26;20233;-84
2024/04/25 03:57:29;;;;;;;4.77;3.70;;;3.20;95.50;;;;;;5338218;26;20722;-84
2024/04/25 03:59:57;;;;;;;4.10;3.57;;;3.20;95.60;;;;;;5342549;26;20232;-84
2024/04/25 04:02:26;;;;;;;3.70;3.23;;;3.10;96.00;;;;;;5336615;26;20267;-84
2024/04/25 04:04:55;;;;;;;5.43;3.77;;;3.10;95.70;;;;;;5332576;26;20300;-84
2024/04/25 04:07:24;;;;;;;5.03;3.47;;;3.10;95.90;;;;;;5338292;26;20326;-84
2024/04/25 04:09:53;;;;;;;4.37;3.60;;;3.10;96.00;;;;;;5343819;26;20242;-84
2024/04/25 04:12:22;;;;;;;4.00;3.60;;;3.00;96.10;;;;;;5325918;26;22119;-84
2024/04/25 04:14:53;;;;;;;4.77;3.80;;;3.00;96.00;;;;;;5342452;26;20238;-84
2024/04/25 04:17:22;;;;;;;5.47;3.50;;;2.90;96.30;;;;;;5340801;26;20368;-84
2024/04/25 04:19:50;;;;;;;4.67;3.80;;;2.90;96.50;;;;;;5340743;26;20763;-84
2024/04/25 04:22:19;;;;;;;4.13;3.50;;;2.90;96.70;;;;;;5335128;26;20268;-84
2024/04/25 04:24:48;;;;;;;4.23;3.60;;;2.90;96.60;;;;;;5343878;26;20294;-84
2024/04/25 04:27:16;;;;;;;4.50;3.57;;;2.90;96.70;;;;;;5342678;26;20376;-84
2024/04/25 04:29:45;;;;;;;4.57;3.43;;;2.90;96.70;;;;;;5346970;26;20345;-84
2024/04/25 04:32:16;;;;;;;5.03;3.97;;;2.90;96.70;;;;;;5345644;26;20294;-84
2024/04/25 04:34:45;;;;;;;5.73;3.90;;;2.90;96.60;;;;;;5347724;26;20633;-84
2024/04/25 04:37:14;;;;;;;4.63;3.97;;;2.90;96.80;;;;;;5336486;26;20243;-84
2024/04/25 04:39:42;;;;;;;4.57;4.10;;;2.90;96.80;;;;;;5339157;26;20339;-84
2024/04/25 04:42:11;;;;;;;4.33;3.67;;;3.00;97.00;;;;;;5351985;26;20293;-83
2024/04/25 04:44:40;;;;;;;4.70;3.70;;;3.00;96.80;;;;;;5335310;26;20271;-84
2024/04/25 04:47:09;;;;;;;6.60;3.73;;;3.10;96.40;;;;;;5346936;26;20367;-84
2024/04/25 04:50:23;;;;;;;5.20;3.83;;;3.10;96.60;;;;;;5345634;26;20301;-84
2024/04/25 04:52:51;;;;;;;4.83;3.67;;;3.30;96.60;;;;;;5334922;26;20615;-84
2024/04/25 04:55:20;;;;;;;4.80;3.93;;;3.40;96.60;;;;;;5335702;26;20292;-84
2024/04/25 04:57:49;;;;;;;4.53;3.70;;;3.50;96.40;;;;;;5340952;26;20234;-84
2024/04/25 05:00:18;;;;;;;4.37;3.60;;;3.60;96.60;;;;;;5341098;26;20237;-84
2024/04/25 05:02:46;;;;;;;6.13;3.53;;;3.80;95.80;;;;;;5334520;26;20334;-84
2024/04/25 05:05:20;;;;;;;4.43;3.10;;;3.90;94.80;;;;;;5325209;26;20233;-84
2024/04/25 05:07:55;;;;;;;4.97;3.57;;;4.00;94.00;;;;;;5345965;26;20233;-84
2024/04/25 05:10:24;;;;;;;3.97;3.57;;;4.10;94.00;;;;;;5343058;26;20245;-84
2024/04/25 05:12:53;;;;;;;4.47;3.13;;;4.10;93.20;;;;;;5357230;26;20828;-84
2024/04/25 05:15:21;;;;;;;4.67;3.50;;;4.10;93.30;;;;;;5351011;26;20789;-84
2024/04/25 05:17:52;;;;;;;3.83;3.37;;;4.10;93.40;;;;;;5336096;26;20361;-84
2024/04/25 05:20:23;;;;;;;3.40;3.00;;;4.10;93.30;;;;;;5337757;26;20291;-84
2024/04/25 05:22:51;;;;;;;3.97;3.00;;;4.10;92.90;;;;;;5329375;26;20250;-84
2024/04/25 05:25:20;;;;;;;4.53;3.30;;;4.20;93.20;;;;;;5335789;26;20235;-84
2024/04/25 05:27:51;;;;;;;4.93;3.30;;;4.40;92.20;;;;;;5322725;26;20830;-84
2024/04/25 05:30:20;;;;;;;3.37;3.07;;;4.60;92.30;;;;;;5338054;26;20237;-84
2024/04/25 05:32:49;;;;;;;3.80;3.23;;;4.70;92.20;;;;;;5341909;26;20242;-84
2024/04/25 05:35:17;;;;;;;4.57;3.10;;;4.90;91.30;;;;;;5344706;26;20573;-84
2024/04/25 05:37:48;;;;;;;5.63;3.33;;;5.00;90.80;;;;;;5341503;26;20289;-84
2024/04/25 05:40:17;;;;;;;4.63;2.77;;;5.10;90.80;;;;;;5340682;26;20336;-84
2024/04/25 05:42:46;;;;;;;3.67;2.93;;;5.30;89.10;;;;;;5333273;26;20301;-86
2024/04/25 05:45:14;;;;;;;3.40;2.93;;;5.40;85.00;;;;;;5336778;26;20225;-84
2024/04/25 05:47:43;;;;;;;5.20;2.90;;;5.50;87.40;;;;;;5341071;26;20289;-85
2024/04/25 05:50:12;;;;;;;3.87;2.83;;;5.60;85.10;;;;;;5343153;26;20241;-86
2024/04/25 05:52:40;;;;;;;4.30;2.90;;;5.60;82.20;;;;;;5342737;26;20233;-86
2024/04/25 05:55:12;;;;;;;5.27;3.10;;;5.70;83.50;;;;;;5341469;26;21094;-86
2024/04/25 05:57:41;;;;;;;4.67;2.97;;;5.60;83.20;;;;;;5340548;26;20229;-86
2024/04/25 06:00:10;;;;;;;3.63;2.47;;;5.60;84.10;;;;;;5339701;26;20234;-86
2024/04/25 06:02:39;;;;;;;3.97;2.80;;;5.60;81.30;;;;;;5343307;26;20272;-86
2024/04/25 06:05:07;;;;;;;4.63;2.73;;;5.60;79.10;;;;;;5348357;26;20233;-88
2024/04/25 06:07:36;;;;;;;3.70;2.80;;;5.50;80.80;;;;;;5344377;26;20237;-84
2024/04/25 06:10:05;;;;;;;3.60;2.50;;;5.40;80.90;;;;;;5340596;26;20245;-82
2024/04/25 06:12:36;;;;;;;3.03;2.50;;;5.50;81.30;;;;;;5364973;26;20232;-84
2024/04/25 06:15:05;;;;;;;4.03;2.90;;;5.40;80.70;;;;;;5326470;26;20269;-84
2024/04/25 06:17:33;;;;;;;3.43;2.93;;;5.50;80.00;;;;;;5343575;26;20824;-85
2024/04/25 06:20:04;;;;;;;2.90;2.33;;;5.50;79.50;;;;;;5343977;26;20611;-84
2024/04/25 06:22:32;;;;;;;4.63;2.60;;;5.60;80.00;;;;;;5334708;26;20235;-85
2024/04/25 06:25:01;;;;;;;3.00;2.65;;;5.70;78.50;;;;;;5331145;26;20301;-85
2024/04/25 06:27:30;;;;;;;2.53;2.33;;;5.70;78.10;;;;;;5334424;26;20241;-85
2024/04/25 06:30:01;;;;;;;6.00;2.58;;;5.70;80.50;;;;;;5347015;26;20351;-85
2024/04/25 06:32:30;;;;;;;3.17;2.50;;;5.80;80.50;;;;;;5340676;26;20242;-85
2024/04/25 06:34:59;;;;;;;2.90;2.60;;;5.80;81.00;;;;;;5342739;26;20359;-84
2024/04/25 06:37:28;;;;;;;3.38;2.70;;;6.00;82.10;;;;;;5337338;26;21242;-88
2024/04/25 06:39:57;;;;;;;3.08;2.50;;;6.30;78.90;;;;;;5331253;26;20237;-89
2024/04/25 06:42:25;;;;;;;3.88;2.90;;;6.40;79.10;;;;;;5335762;26;20240;-88
2024/04/25 06:44:54;;;;;;;3.15;2.78;;;6.80;72.80;;;;;;5332760;26;20366;-86
2024/04/25 06:47:25;;;;;;;3.45;2.88;;;6.90;71.60;;;;;;5339422;26;20360;-87
2024/04/25 06:49:54;;;;;;;3.00;2.50;;;6.80;71.60;;;;;;5337932;26;20256;-87
2024/04/25 06:52:23;;;;;;;6.00;3.08;;;6.90;71.70;;;;;;5340777;26;20243;-89
2024/04/25 06:54:51;;;;;;;4.45;2.90;;;6.90;71.70;;;;;;5341663;26;20733;-86
2024/04/25 06:57:20;;;;;;;3.72;2.80;;;7.00;71.80;;;;;;5344119;26;20230;-85
2024/04/25 06:59:50;;;;;;;2.70;2.50;;;7.00;68.90;;;;;;5336257;26;20233;-86
2024/04/25 07:02:19;;;;;;;3.10;2.50;;;7.10;61.00;;;;;;5335276;26;21568;-91
2024/04/25 07:04:51;;;;;;;3.58;2.85;;;7.20;60.00;;;;;;5342162;26;20276;-88
2024/04/25 07:07:20;;;;;;;3.67;2.72;;;7.30;58.00;;;;;;5331436;26;20230;-88
2024/04/25 07:09:48;;;;;;;3.47;2.80;;;7.30;57.90;;;;;;5336806;26;20305;-88
2024/04/25 07:12:17;;;;;;;3.83;2.80;;;7.20;62.30;;;;;;5338429;26;20308;-88
2024/04/25 07:14:46;;;;;;;2.78;2.58;;;7.10;59.90;;;;;;5321880;26;20679;-88
2024/04/25 07:17:15;;;;;;;4.07;2.90;;;6.90;64.10;;;;;;5335017;26;21125;-87
2024/04/25 07:19:43;;;;;;;5.45;3.00;;;6.90;62.60;;;;;;5331122;26;20330;-87
2024/04/25 07:22:15;;;;;;;5.32;2.90;;;6.80;62.60;;;;;;5345519;26;20790;-87
2024/04/25 07:24:44;;;;;;;6.82;3.00;;;6.80;64.50;;;;;;5342300;26;20267;-87
2024/04/25 07:27:13;;;;;;;3.20;2.80;;;6.80;62.30;;;;;;5337729;26;20249;-87
2024/04/25 07:29:47;;;;;;;3.72;2.90;;;6.80;62.20;;;;;;5331194;26;20234;-87
2024/04/25 07:32:17;;;;;;;3.88;2.90;;;6.70;64.50;;;;;;5323361;26;20795;-88
2024/04/25 07:34:46;;;;;;;3.30;2.50;;;6.50;63.70;;;;;;5345124;26;20288;-87
2024/04/25 07:37:17;;;;;;;4.35;2.80;;;6.50;66.50;;;;;;5340456;26;20623;-87
2024/04/25 07:39:46;;;;;;;2.80;2.60;;;6.60;64.60;;;;;;5327939;26;20303;-87
2024/04/25 07:42:14;;;;;;;4.70;2.90;;;6.70;67.90;;;;;;5332230;26;20301;-87
2024/04/25 07:44:43;;;;;;;3.55;2.80;;;6.70;64.20;;;;;;5328471;26;20279;-87
2024/04/25 07:47:12;;;;;;;4.53;2.72;;;6.80;67.20;;;;;;5340878;26;20237;-87
2024/04/25 07:49:41;;;;;;;4.57;2.83;;;6.70;62.70;;;;;;5328637;26;20324;-87
2024/04/25 07:52:09;;;;;;;5.25;2.78;;;6.40;66.00;;;;;;5338894;26;20304;-87
2024/04/25 07:54:41;;;;;;;4.07;2.83;;;6.20;70.90;;;;;;5341021;26;20748;-88
2024/04/25 07:57:09;;;;;;;3.95;2.88;;;6.00;76.40;;;;;;5344577;26;20338;-86
2024/04/25 07:59:38;;;;;;;4.80;3.30;;;6.00;78.70;;;;;;5332972;26;20618;-87
2024/04/25 08:02:07;;;;;;;5.63;2.72;;;6.00;80.40;;;;;;5335971;26;20889;-87
2024/04/25 08:04:36;;;;;;;5.97;3.40;;;6.10;78.70;;;;;;5348124;26;20249;-87
2024/04/25 08:07:04;;;;;;;4.18;3.05;;;6.20;78.10;;;;;;5346337;26;20314;-88
2024/04/25 08:09:34;;;;;;;10.07;3.08;;;6.30;75.90;;;;;;5340688;26;20622;-88
2024/04/25 08:12:06;;;;;;;7.75;3.60;;;6.20;76.00;;;;;;5341356;26;20399;-87
2024/04/25 08:14:34;;;;;;;4.18;3.08;;;6.20;76.30;;;;;;5353998;26;20365;-87
2024/04/25 08:17:03;;;;;;;4.38;3.08;;;6.20;76.00;;;;;;5339802;26;20348;-87
2024/04/25 08:19:32;;;;;;;5.70;2.85;;;6.40;75.00;;;;;;5339055;26;20233;-87
2024/04/25 08:22:00;;;;;;;4.28;3.10;;;6.70;69.10;;;;;;5334631;26;20302;-86
2024/04/25 08:24:29;;;;;;;3.75;2.95;;;7.00;67.00;;;;;;5338468;26;20417;-87
2024/04/25 08:26:57;;;;;;;3.45;2.85;;;7.10;63.70;;;;;;5345404;26;20230;-85
2024/04/25 08:29:31;;;;;;;3.78;3.00;;;7.20;59.30;;;;;;5345565;26;20354;-87
2024/04/25 08:31:59;;;;;;;4.03;3.05;;;7.30;64.00;;;;;;5324645;26;20339;-87
2024/04/25 08:34:28;;;;;;;3.90;3.05;;;7.70;60.60;;;;;;5338801;26;20308;-87
2024/04/25 08:36:57;;;;;;;4.05;3.00;;;7.60;59.10;;;;;;5331091;26;20245;-87
2024/04/25 08:39:28;;;;;;;3.58;3.08;;;7.60;62.00;;;;;;5340147;26;20608;-87
2024/04/25 08:41:56;;;;;;;3.10;2.80;;;7.90;60.10;;;;;;5342799;26;20269;-87
2024/04/25 08:44:28;;;;;;;5.72;2.72;;;8.30;59.20;;;;;;5350270;26;20326;-87
2024/04/25 08:46:58;;;;;;;2.83;2.40;;;8.70;49.40;;;;;;5329601;26;20656;-87
2024/04/25 08:49:29;;;;;;;3.47;2.88;;;8.90;52.50;;;;;;5346273;26;20862;-87
2024/04/25 08:51:58;;;;;;;4.70;2.80;;;9.00;56.70;;;;;;5324123;26;20258;-86
2024/04/25 08:54:27;;;;;;;4.47;2.63;;;9.00;47.50;;;;;;5329263;26;20249;-87
2024/04/25 08:56:56;;;;;;;5.80;2.90;;;8.90;47.40;;;;;;5341189;26;20234;-87
2024/04/25 08:59:27;;;;;;;9.32;2.90;;;8.80;49.30;;;;;;5337590;26;20280;-87
2024/04/25 09:01:58;;;;;;;2.80;2.60;;;8.80;46.10;;;;;;5330921;26;20293;-87
2024/04/25 09:04:30;;;;;;;4.25;2.70;;;8.90;47.40;;;;;;5345242;26;20285;-87
2024/04/25 09:06:58;;;;;;;2.70;2.50;;;8.90;41.40;;;;;;5349526;26;20237;-86
2024/04/25 09:09:28;;;;;;;2.88;2.67;;;9.20;42.10;;;;;;5336783;26;20368;-88
2024/04/25 09:11:56;;;;;;;3.38;2.80;;;10.20;38.00;;;;;;5329873;26;20249;-88
2024/04/25 09:14:27;;;;;;;3.10;2.78;;;11.30;31.10;;;;;;5348257;26;20288;-88
2024/04/25 09:16:56;;;;;;;3.25;2.60;;;12.60;21.40;;;;;;5336743;26;20692;-88
2024/04/25 09:19:26;;;;;;;5.30;2.60;;;13.80;17.60;;;;;;5342664;26;20348;-88
2024/04/25 09:21:54;;;;;;;2.78;2.53;;;13.90;17.30;;;;;;5349453;26;20235;-88
2024/04/25 09:24:23;;;;;;;5.55;2.50;;;13.20;18.00;;;;;;5333522;26;20250;-87
2024/04/25 09:26:52;;;;;;;4.78;2.60;;;12.50;19.40;;;;;;5346749;26;20233;-88
2024/04/25 09:29:21;;;;;;;2.83;2.33;;;11.90;19.80;;;;;;5342500;26;20276;-89
2024/04/25 09:31:53;;;;;;;5.30;2.30;;;11.30;24.70;;;;;;5339265;26;20269;-89
2024/04/25 09:34:22;;;;;;;4.88;1.80;;;10.30;26.10;;;;;;5340298;26;20312;-88
2024/04/25 09:36:51;;;;;;;3.70;1.83;;;8.80;31.60;;;;;;5345044;26;20230;-89
2024/04/25 09:39:20;;;;;;;3.22;2.08;;;7.50;45.50;;;;;;5335786;26;20735;-89
2024/04/25 09:41:50;;;;;;;3.58;2.10;;;6.60;58.40;;;;;;5335090;26;20289;-89
2024/04/25 09:44:19;;;;;;;3.97;2.20;;;6.20;71.00;;;;;;5321906;26;20323;-91
2024/04/25 09:46:55;;;;;;;3.17;2.30;;;6.20;77.40;;;;;;5337772;26;20374;-87
2024/04/25 09:49:31;;;;;;;3.00;2.70;;;6.50;81.00;;;;;;5338233;26;20235;-87
2024/04/25 09:52:06;;;;;;;2.53;2.15;;;7.20;80.10;;;;;;5342460;26;20279;-88
2024/04/25 09:54:45;;;;;;;2.75;2.33;;;8.30;70.60;;;;;;5333555;26;20288;-89
2024/04/25 09:57:18;;;;;;;2.88;2.28;;;9.60;53.50;;;;;;5335717;26;20229;-86
2024/04/25 09:59:53;;;;;;;2.30;1.80;;;10.70;39.60;;;;;;5333318;26;20273;-87
2024/04/25 10:02:25;;;;;;;2.63;1.92;;;12.00;27.00;;;;;;5330912;26;20233;-87
2024/04/25 10:04:54;;;;;;;2.08;1.88;;;13.70;21.50;;;;;;5335716;26;20269;-87
2024/04/25 10:07:23;;;;;;;2.28;2.08;;;15.20;15.10;;;;;;5339992;26;20338;-85
2024/04/25 10:09:53;;;;;;;2.38;2.08;;;14.80;18.80;;;;;;5338415;26;20350;-86
2024/04/25 10:12:22;;;;;;;2.53;2.10;;;13.80;18.30;;;;;;5339808;26;20363;-85
2024/04/25 10:14:58;;;;;;;2.20;2.00;;;12.60;20.00;;;;;;5348661;26;20233;-85
2024/04/25 10:17:30;;;;;;;2.42;2.22;;;11.20;24.60;;;;;;5344079;26;20244;-87
2024/04/25 10:20:00;;;;;;;3.55;2.30;;;11.20;25.20;;;;;;5328220;26;20242;-88
2024/04/25 10:22:29;;;;;;;2.67;2.08;;;11.60;26.90;;;;;;5337622;26;20334;-87
2024/04/25 10:25:01;;;;;;;2.47;2.10;;;11.80;22.60;;;;;;5336885;26;20936;-87
2024/04/25 10:27:30;;;;;;;3.33;2.40;;;11.50;23.90;;;;;;5342849;26;20273;-86
2024/04/25 10:30:05;;;;;;;3.10;2.30;;;11.20;24.60;;;;;;5346314;26;20249;-87
2024/04/25 10:32:37;;;;;;;2.75;2.40;;;11.30;22.80;;;;;;5344363;26;20275;-87
2024/04/25 10:35:06;;;;;;;3.13;2.33;;;10.80;24.30;;;;;;5343093;26;20315;-87
2024/04/25 10:37:38;;;;;;;2.33;2.10;;;11.10;23.50;;;;;;5347985;26;20246;-87
2024/04/25 10:40:07;;;;;;;2.67;2.38;;;10.80;25.40;;;;;;5326917;26;20854;-87
2024/04/25 10:42:36;;;;;;;3.22;2.33;;;10.20;23.80;;;;;;5349206;26;20248;-87
2024/04/25 10:45:04;;;;;;;2.17;1.70;;;9.80;24.90;;;;;;5339026;26;20238;-87
2024/04/25 10:47:36;;;;;;;2.08;1.92;;;9.50;24.70;;;;;;5342826;26;20277;-86
2024/04/25 10:50:05;;;;;;;2.28;2.08;;;9.20;23.80;;;;;;5331106;26;20249;-86
2024/04/25 10:52:34;;;;;;;2.85;2.10;;;8.90;24.20;;;;;;5336488;26;20266;-86
2024/04/25 10:55:03;;;;;;;3.38;2.20;;;8.80;26.60;;;;;;5342143;26;21358;-86
2024/04/25 10:57:32;;;;;;;3.28;2.10;;;8.90;30.00;;;;;;5320717;26;20365;-86
2024/04/25 11:00:01;;;;;;;2.78;2.00;;;9.00;29.00;;;;;;5341635;26;20233;-86
2024/04/25 11:02:39;;;;;;;4.80;2.30;;;9.50;31.60;;;;;;5334540;26;20282;-86
2024/04/25 11:05:08;;;;;;;2.75;2.10;;;9.90;26.70;;;;;;5342501;26;20230;-86
2024/04/25 11:07:39;;;;;;;3.50;2.03;;;10.20;22.40;;;;;;5336965;26;20269;-86
2024/04/25 11:10:08;;;;;;;4.10;2.10;;;10.70;18.90;;;;;;5343659;26;20297;-86
2024/04/25 11:12:38;;;;;;;4.25;1.90;;;10.50;23.20;;;;;;5330143;26;20264;-86
2024/04/25 11:15:17;;;;;;;2.15;1.95;;;10.60;19.90;;;;;;5334254;26;20245;-86
2024/04/25 11:17:49;;;;;;;2.97;1.98;;;10.80;19.20;;;;;;5339127;26;20245;-86
2024/04/25 11:20:19;;;;;;;2.90;2.08;;;11.40;17.60;;;;;;5342649;26;20244;-87
2024/04/25 11:22:47;;;;;;;3.75;1.85;;;11.10;18.70;;;;;;5342659;26;20300;-87
2024/04/25 11:25:18;;;;;;;3.38;1.70;;;11.10;18.00;;;;;;5337944;26;20370;-87
2024/04/25 11:27:47;;;;;;;1.83;1.73;;;10.90;17.70;;;;;;5337472;26;20312;-87
2024/04/25 11:30:15;;;;;;;2.63;1.80;;;11.10;15.70;;;;;;5336018;26;20371;-87
2024/04/25 11:32:49;;;;;;;2.85;1.50;;;11.40;18.50;;;;;;5325808;26;20347;-87
2024/04/25 11:35:21;;;;;;;3.05;1.63;;;11.70;17.00;;;;;;5340422;26;20233;-88
2024/04/25 11:37:50;;;;;;;2.38;1.60;;;12.20;17.40;;;;;;5343263;26;20276;-89
2024/04/25 11:40:33;;;;;;;3.10;1.80;;;12.70;15.80;;;;;;5346151;26;20280;-88
2024/04/25 11:43:01;;;;;;;1.75;1.63;;;13.00;13.70;;;;;;5341086;26;20276;-87
2024/04/25 11:45:30;;;;;;;1.77;1.58;;;12.80;11.80;;;;;;5336372;26;20293;-88
2024/04/25 11:48:01;;;;;;;2.05;1.85;;;12.60;10.80;;;;;;5332270;26;20293;-84
2024/04/25 11:50:30;;;;;;;2.38;1.60;;;12.40;12.00;;;;;;5343821;26;20237;-88
2024/04/25 11:52:58;;;;;;;2.25;1.95;;;12.00;15.10;;;;;;5346642;26;20241;-88
2024/04/25 11:55:27;;;;;;;2.13;1.50;;;11.60;14.80;;;;;;5344652;26;20245;-88
2024/04/25 11:57:56;;;;;;;3.45;1.50;;;11.10;14.50;;;;;;5350128;26;20710;-88
2024/04/25 12:00:25;;;;;;;2.28;1.60;;;10.90;17.30;;;;;;5333999;26;21062;-88
2024/04/25 12:02:53;;;;;;;7.13;5.13;;;10.40;18.40;;;;;;5337558;26;20245;-87
2024/04/25 12:05:25;;;;;;;6.28;1.80;;;10.20;19.20;;;;;;5345752;26;20237;-87
2024/04/25 12:07:56;;;;;;;6.10;1.65;;;9.60;22.20;;;;;;5345905;26;20245;-87
2024/04/25 12:10:25;;;;;;;1.63;1.42;;;9.30;24.50;;;;;;5340767;26;20321;-87
2024/04/25 12:12:54;;;;;;;3.55;1.60;;;9.20;24.50;;;;;;5340335;26;20800;-87
2024/04/25 12:15:23;;;;;;;3.03;1.40;;;9.60;22.00;;;;;;5338804;26;20277;-87
2024/04/25 12:17:52;;;;;;;1.58;1.48;;;10.00;18.50;;;;;;5328885;26;20288;-87
2024/04/25 12:20:21;;;;;;;2.45;1.48;;;10.00;18.10;;;;;;5338406;26;20334;-87
2024/04/25 12:22:54;;;;;;;1.83;1.60;;;9.80;21.60;;;;;;5319112;26;20310;-87
2024/04/25 12:25:22;;;;;;;2.47;1.50;;;9.80;21.20;;;;;;5338591;26;20613;-88
2024/04/25 12:28:19;;;;;;;7.88;2.30;;;10.00;18.30;;;;;;5340693;26;20276;-87
2024/04/25 12:30:49;;;;;;;2.45;1.60;;;10.20;19.20;;;;;;5325335;26;20245;-87
2024/04/25 12:33:18;;;;;;;10.25;2.13;;;10.20;19.10;;;;;;5326329;26;20281;-87
2024/04/25 12:35:46;;;;;;;4.70;1.88;;;10.30;19.50;;;;;;5324054;26;20233;-87
2024/04/25 12:38:18;;;;;;;2.38;1.60;;;10.20;21.40;;;;;;5335408;26;20289;-87
2024/04/25 12:40:46;;;;;;;2.78;1.60;;;9.90;21.90;;;;;;5336330;26;20711;-87
2024/04/25 12:43:15;;;;;;;2.25;1.92;;;10.20;22.00;;;;;;5336141;26;20272;-86
2024/04/25 12:45:47;;;;;;;6.70;2.47;;;10.70;18.70;;;;;;5332572;26;20300;-87
2024/04/25 12:48:15;;;;;;;3.35;1.85;;;11.40;15.30;;;;;;5330504;26;20284;-86
2024/04/25 12:50:43;;;;;;;2.05;1.60;;;11.40;16.90;;;;;;5341765;26;20339;-86
2024/04/25 12:53:14;;;;;;;1.90;1.65;;;11.30;16.80;;;;;;5334504;26;20302;-87
2024/04/25 12:55:46;;;;;;;3.92;1.90;;;11.10;15.60;;;;;;5331290;26;20266;-87
2024/04/25 12:58:14;;;;;;;3.53;1.80;;;10.90;17.40;;;;;;5332996;26;20272;-87
2024/04/25 13:00:44;;;;;;;12.30;8.32;;;10.70;16.20;;;;;;5333113;26;20277;-86
2024/04/25 13:03:12;;;;;;;2.50;2.30;;;10.70;17.70;;;;;;5331431;26;20269;-87
2024/04/25 13:05:41;;;;;;;4.35;3.15;;;10.60;18.10;;;;;;5330424;26;20233;-87
2024/04/25 13:08:09;;;;;;;9.18;4.10;;;10.80;22.40;;;;;;5325303;26;20260;-87
2024/04/25 13:10:38;;;;;;;7.10;3.35;;;11.50;20.20;;;;;;5338048;26;20237;-87
2024/04/25 13:13:10;;;;;;;3.75;2.33;;;12.00;19.10;;;;;;5330070;26;21853;-91